sensor_id;sensor_type;location;lat;lon;timestamp;pressure;altitude;pressure_sealevel;temperature;humidity
84248;BME280;74387;44.536;18.530;2024-02-14T00:00:10;99968.31;;;5.00;70.62
84248;BME280;74387;44.536;18.530;2024-02-14T00:02:46;99971.00;;;5.00;70.88
84248;BME280;74387;44.536;18.530;2024-02-14T00:05:15;99969.50;;;5.02;70.78
84248;BME280;74387;44.536;18.530;2024-02-14T00:07:42;99968.31;;;5.00;70.62
84248;BME280;74387;44.536;18.530;2024-02-14T00:10:08;99966.44;;;4.85;70.35
84248;BME280;74387;44.536;18.530;2024-02-14T00:12:35;99976.38;;;4.84;70.44
84248;BME280;74387;44.536;18.530;2024-02-14T00:15:02;99970.94;;;4.81;70.56
84248;BME280;74387;44.536;18.530;2024-02-14T00:17:29;99972.91;;;4.64;71.12
84248;BME280;74387;44.536;18.530;2024-02-14T00:19:55;99971.06;;;4.68;71.14
84248;BME280;74387;44.536;18.530;2024-02-14T00:22:21;99978.91;;;4.77;71.07
84248;BME280;74387;44.536;18.530;2024-02-14T00:24:47;99973.34;;;4.86;71.09
84248;BME280;74387;44.536;18.530;2024-02-14T00:27:13;99977.00;;;4.78;71.46
84248;BME280;74387;44.536;18.530;2024-02-14T00:29:40;99976.59;;;4.76;71.21
84248;BME280;74387;44.536;18.530;2024-02-14T00:32:06;99979.94;;;4.73;71.54
84248;BME280;74387;44.536;18.530;2024-02-14T00:34:32;99981.59;;;4.77;71.09
84248;BME280;74387;44.536;18.530;2024-02-14T00:36:59;99982.38;;;4.78;71.33
84248;BME280;74387;44.536;18.530;2024-02-14T00:39:24;99989.66;;;4.81;71.29
84248;BME280;74387;44.536;18.530;2024-02-14T00:41:50;99985.94;;;4.85;70.72
84248;BME280;74387;44.536;18.530;2024-02-14T00:44:18;99995.50;;;4.86;70.89
84248;BME280;74387;44.536;18.530;2024-02-14T00:46:45;99994.81;;;4.89;70.33
84248;BME280;74387;44.536;18.530;2024-02-14T00:49:11;99998.53;;;4.85;70.68
84248;BME280;74387;44.536;18.530;2024-02-14T00:51:37;99990.44;;;4.81;70.38
84248;BME280;74387;44.536;18.530;2024-02-14T00:54:04;100005.88;;;4.88;70.41
84248;BME280;74387;44.536;18.530;2024-02-14T00:56:29;99999.03;;;4.90;70.38
84248;BME280;74387;44.536;18.530;2024-02-14T00:58:55;99996.56;;;4.82;70.36
84248;BME280;74387;44.536;18.530;2024-02-14T01:01:22;99999.22;;;4.82;70.66
84248;BME280;74387;44.536;18.530;2024-02-14T01:03:48;99998.63;;;4.88;70.11
84248;BME280;74387;44.536;18.530;2024-02-14T01:06:17;99996.34;;;4.71;70.08
84248;BME280;74387;44.536;18.530;2024-02-14T01:08:44;100005.22;;;4.75;70.29
84248;BME280;74387;44.536;18.530;2024-02-14T01:11:10;100001.50;;;4.80;69.93
84248;BME280;74387;44.536;18.530;2024-02-14T01:13:36;100003.59;;;4.71;70.72
84248;BME280;74387;44.536;18.530;2024-02-14T01:16:05;100004.00;;;4.73;70.85
84248;BME280;74387;44.536;18.530;2024-02-14T01:18:31;99998.06;;;4.63;70.66
84248;BME280;74387;44.536;18.530;2024-02-14T01:20:57;100005.75;;;4.65;70.97
84248;BME280;74387;44.536;18.530;2024-02-14T01:23:24;100002.56;;;4.59;70.93
84248;BME280;74387;44.536;18.530;2024-02-14T01:25:50;100008.75;;;4.63;71.60
84248;BME280;74387;44.536;18.530;2024-02-14T01:28:16;100008.16;;;4.70;71.42
84248;BME280;74387;44.536;18.530;2024-02-14T01:30:43;100013.75;;;4.65;71.50
84248;BME280;74387;44.536;18.530;2024-02-14T01:33:09;100017.13;;;4.62;71.62
84248;BME280;74387;44.536;18.530;2024-02-14T01:35:34;100027.72;;;4.58;71.55
84248;BME280;74387;44.536;18.530;2024-02-14T01:38:00;100028.69;;;4.34;71.77
84248;BME280;74387;44.536;18.530;2024-02-14T01:40:28;100021.97;;;4.25;72.27
84248;BME280;74387;44.536;18.530;2024-02-14T01:42:54;100029.56;;;4.39;72.37
84248;BME280;74387;44.536;18.530;2024-02-14T01:45:21;100028.69;;;4.50;71.63
84248;BME280;74387;44.536;18.530;2024-02-14T01:47:50;100027.91;;;4.65;71.21
84248;BME280;74387;44.536;18.530;2024-02-14T01:50:16;100018.50;;;4.72;71.12
84248;BME280;74387;44.536;18.530;2024-02-14T01:52:44;100024.00;;;4.79;71.07
84248;BME280;74387;44.536;18.530;2024-02-14T01:55:12;100016.22;;;4.89;70.76
84248;BME280;74387;44.536;18.530;2024-02-14T01:57:38;100023.19;;;4.94;71.08
84248;BME280;74387;44.536;18.530;2024-02-14T02:00:06;100021.44;;;5.01;71.24
84248;BME280;74387;44.536;18.530;2024-02-14T02:02:37;100020.09;;;4.92;71.33
84248;BME280;74387;44.536;18.530;2024-02-14T02:05:11;100020.28;;;4.83;71.19
84248;BME280;74387;44.536;18.530;2024-02-14T02:07:37;100017.59;;;4.83;71.54
84248;BME280;74387;44.536;18.530;2024-02-14T02:10:06;100017.47;;;4.76;71.59
84248;BME280;74387;44.536;18.530;2024-02-14T02:12:31;100016.78;;;4.63;72.38
84248;BME280;74387;44.536;18.530;2024-02-14T02:14:58;100017.63;;;4.67;72.35
84248;BME280;74387;44.536;18.530;2024-02-14T02:17:24;100015.50;;;4.57;72.32
84248;BME280;74387;44.536;18.530;2024-02-14T02:19:49;100008.69;;;4.60;71.92
84248;BME280;74387;44.536;18.530;2024-02-14T02:22:15;100018.06;;;4.54;72.45
84248;BME280;74387;44.536;18.530;2024-02-14T02:24:41;100017.81;;;4.59;72.26
84248;BME280;74387;44.536;18.530;2024-02-14T02:27:07;100023.69;;;4.49;72.54
84248;BME280;74387;44.536;18.530;2024-02-14T02:29:32;100023.00;;;4.36;73.32
84248;BME280;74387;44.536;18.530;2024-02-14T02:31:58;100029.88;;;4.21;73.37
84248;BME280;74387;44.536;18.530;2024-02-14T02:34:24;100022.13;;;4.16;73.63
84248;BME280;74387;44.536;18.530;2024-02-14T02:36:50;100027.47;;;4.16;73.18
84248;BME280;74387;44.536;18.530;2024-02-14T02:39:16;100023.16;;;4.12;73.61
84248;BME280;74387;44.536;18.530;2024-02-14T02:41:42;100024.19;;;4.07;73.39
84248;BME280;74387;44.536;18.530;2024-02-14T02:44:08;100024.34;;;3.98;73.68
84248;BME280;74387;44.536;18.530;2024-02-14T02:46:33;100025.47;;;3.97;73.90
84248;BME280;74387;44.536;18.530;2024-02-14T02:48:59;100037.44;;;4.03;73.07
84248;BME280;74387;44.536;18.530;2024-02-14T02:51:25;100037.44;;;4.03;72.67
84248;BME280;74387;44.536;18.530;2024-02-14T02:53:52;100043.38;;;3.97;72.85
84248;BME280;74387;44.536;18.530;2024-02-14T02:56:18;100044.31;;;3.89;72.50
84248;BME280;74387;44.536;18.530;2024-02-14T02:58:44;100049.47;;;3.82;72.25
84248;BME280;74387;44.536;18.530;2024-02-14T03:01:10;100040.22;;;3.79;72.45
84248;BME280;74387;44.536;18.530;2024-02-14T03:03:37;100050.78;;;3.88;72.93
84248;BME280;74387;44.536;18.530;2024-02-14T03:06:04;100046.66;;;3.90;72.54
84248;BME280;74387;44.536;18.530;2024-02-14T03:08:31;100060.44;;;3.92;72.11
84248;BME280;74387;44.536;18.530;2024-02-14T03:11:06;100065.91;;;3.84;72.12
84248;BME280;74387;44.536;18.530;2024-02-14T03:13:32;100056.59;;;3.78;72.73
84248;BME280;74387;44.536;18.530;2024-02-14T03:15:59;100070.22;;;3.88;72.63
84248;BME280;74387;44.536;18.530;2024-02-14T03:18:25;100066.19;;;3.94;72.07
84248;BME280;74387;44.536;18.530;2024-02-14T03:20:51;100067.34;;;4.09;71.86
84248;BME280;74387;44.536;18.530;2024-02-14T03:23:19;100070.09;;;4.13;71.32
84248;BME280;74387;44.536;18.530;2024-02-14T03:25:45;100073.06;;;4.23;71.36
84248;BME280;74387;44.536;18.530;2024-02-14T03:28:11;100077.38;;;4.28;70.85
84248;BME280;74387;44.536;18.530;2024-02-14T03:30:38;100081.16;;;4.27;70.60
84248;BME280;74387;44.536;18.530;2024-02-14T03:33:07;100074.59;;;4.24;70.75
84248;BME280;74387;44.536;18.530;2024-02-14T03:35:36;100079.84;;;4.21;71.19
84248;BME280;74387;44.536;18.530;2024-02-14T03:38:02;100089.31;;;4.18;71.04
84248;BME280;74387;44.536;18.530;2024-02-14T03:40:28;100097.69;;;4.17;70.94
84248;BME280;74387;44.536;18.530;2024-02-14T03:42:56;100107.81;;;4.11;71.45
84248;BME280;74387;44.536;18.530;2024-02-14T03:45:22;100107.69;;;4.20;71.23
84248;BME280;74387;44.536;18.530;2024-02-14T03:47:48;100113.56;;;4.25;71.08
84248;BME280;74387;44.536;18.530;2024-02-14T03:50:14;100114.28;;;4.38;70.46
84248;BME280;74387;44.536;18.530;2024-02-14T03:52:40;100120.81;;;4.41;70.25
84248;BME280;74387;44.536;18.530;2024-02-14T03:55:08;100117.00;;;4.42;69.84
84248;BME280;74387;44.536;18.530;2024-02-14T03:57:39;100124.69;;;4.43;69.80
84248;BME280;74387;44.536;18.530;2024-02-14T04:00:05;100124.00;;;4.46;69.88
84248;BME280;74387;44.536;18.530;2024-02-14T04:02:41;100115.66;;;4.48;69.44
84248;BME280;74387;44.536;18.530;2024-02-14T04:05:08;100125.81;;;4.42;69.75
84248;BME280;74387;44.536;18.530;2024-02-14T04:07:33;100118.22;;;4.44;69.73
84248;BME280;74387;44.536;18.530;2024-02-14T04:10:03;100119.69;;;4.42;69.58
84248;BME280;74387;44.536;18.530;2024-02-14T04:12:28;100119.88;;;4.49;69.64
84248;BME280;74387;44.536;18.530;2024-02-14T04:14:54;100126.59;;;4.43;69.83
84248;BME280;74387;44.536;18.530;2024-02-14T04:17:20;100132.63;;;4.40;69.92
84248;BME280;74387;44.536;18.530;2024-02-14T04:19:46;100138.47;;;4.29;70.69
84248;BME280;74387;44.536;18.530;2024-02-14T04:22:11;100135.69;;;4.26;70.56
84248;BME280;74387;44.536;18.530;2024-02-14T04:24:37;100136.91;;;4.28;71.00
84248;BME280;74387;44.536;18.530;2024-02-14T04:27:03;100135.16;;;4.20;71.57
84248;BME280;74387;44.536;18.530;2024-02-14T04:29:29;100138.19;;;4.19;72.05
84248;BME280;74387;44.536;18.530;2024-02-14T04:31:59;100131.28;;;4.18;72.07
84248;BME280;74387;44.536;18.530;2024-02-14T04:34:25;100137.66;;;4.13;71.83
84248;BME280;74387;44.536;18.530;2024-02-14T04:36:51;100134.19;;;4.13;72.08
84248;BME280;74387;44.536;18.530;2024-02-14T04:39:17;100136.63;;;4.18;72.11
84248;BME280;74387;44.536;18.530;2024-02-14T04:41:43;100143.28;;;4.24;71.76
84248;BME280;74387;44.536;18.530;2024-02-14T04:44:09;100149.16;;;4.29;71.19
84248;BME280;74387;44.536;18.530;2024-02-14T04:46:35;100146.00;;;4.40;70.72
84248;BME280;74387;44.536;18.530;2024-02-14T04:49:02;100146.84;;;4.44;70.09
84248;BME280;74387;44.536;18.530;2024-02-14T04:51:31;100149.09;;;4.57;69.60
84248;BME280;74387;44.536;18.530;2024-02-14T04:53:57;100147.16;;;4.70;69.68
84248;BME280;74387;44.536;18.530;2024-02-14T04:56:27;100148.88;;;4.78;69.14
84248;BME280;74387;44.536;18.530;2024-02-14T04:58:55;100147.03;;;4.82;68.59
84248;BME280;74387;44.536;18.530;2024-02-14T05:01:21;100155.94;;;4.86;69.15
84248;BME280;74387;44.536;18.530;2024-02-14T05:03:47;100153.69;;;4.88;69.41
84248;BME280;74387;44.536;18.530;2024-02-14T05:06:14;100161.81;;;4.92;69.50
84248;BME280;74387;44.536;18.530;2024-02-14T05:08:40;100168.38;;;4.94;69.70
84248;BME280;74387;44.536;18.530;2024-02-14T05:11:05;100166.97;;;4.85;70.00
84248;BME280;74387;44.536;18.530;2024-02-14T05:13:32;100165.94;;;4.74;70.06
84248;BME280;74387;44.536;18.530;2024-02-14T05:15:58;100167.72;;;4.54;70.53
84248;BME280;74387;44.536;18.530;2024-02-14T05:18:23;100166.94;;;4.38;70.85
84248;BME280;74387;44.536;18.530;2024-02-14T05:20:49;100161.63;;;4.25;70.82
84248;BME280;74387;44.536;18.530;2024-02-14T05:23:16;100167.75;;;4.26;71.11
84248;BME280;74387;44.536;18.530;2024-02-14T05:25:43;100168.97;;;4.28;71.13
84248;BME280;74387;44.536;18.530;2024-02-14T05:28:09;100168.81;;;4.37;70.40
84248;BME280;74387;44.536;18.530;2024-02-14T05:30:40;100176.06;;;4.37;69.99
84248;BME280;74387;44.536;18.530;2024-02-14T05:33:06;100173.84;;;4.39;69.42
84248;BME280;74387;44.536;18.530;2024-02-14T05:35:31;100176.84;;;4.37;69.05
84248;BME280;74387;44.536;18.530;2024-02-14T05:38:03;100184.09;;;4.37;69.13
84248;BME280;74387;44.536;18.530;2024-02-14T05:40:34;100182.19;;;4.37;68.79
84248;BME280;74387;44.536;18.530;2024-02-14T05:43:05;100185.00;;;4.28;69.42
84248;BME280;74387;44.536;18.530;2024-02-14T05:45:33;100190.81;;;4.18;69.88
84248;BME280;74387;44.536;18.530;2024-02-14T05:48:04;100195.97;;;4.11;70.43
84248;BME280;74387;44.536;18.530;2024-02-14T05:51:00;100196.94;;;3.79;70.65
84248;BME280;74387;44.536;18.530;2024-02-14T05:53:26;100194.16;;;3.75;70.91
84248;BME280;74387;44.536;18.530;2024-02-14T05:55:54;100200.94;;;3.85;70.81
84248;BME280;74387;44.536;18.530;2024-02-14T05:58:30;100199.94;;;3.77;70.76
84248;BME280;74387;44.536;18.530;2024-02-14T06:01:08;100207.41;;;3.72;71.13
84248;BME280;74387;44.536;18.530;2024-02-14T06:03:46;100217.19;;;3.67;71.36
84248;BME280;74387;44.536;18.530;2024-02-14T06:06:21;100218.53;;;3.61;71.32
84248;BME280;74387;44.536;18.530;2024-02-14T06:09:01;100223.22;;;3.52;71.93
84248;BME280;74387;44.536;18.530;2024-02-14T06:11:42;100220.31;;;3.57;71.60
84248;BME280;74387;44.536;18.530;2024-02-14T06:14:30;100220.53;;;3.64;71.42
84248;BME280;74387;44.536;18.530;2024-02-14T06:18:24;100237.00;;;3.42;71.71
84248;BME280;74387;44.536;18.530;2024-02-14T06:21:09;100238.91;;;3.54;71.66
84248;BME280;74387;44.536;18.530;2024-02-14T06:23:45;100246.66;;;3.47;71.78
84248;BME280;74387;44.536;18.530;2024-02-14T06:26:16;100243.22;;;3.46;71.62
84248;BME280;74387;44.536;18.530;2024-02-14T06:28:46;100255.56;;;3.39;71.91
84248;BME280;74387;44.536;18.530;2024-02-14T06:31:23;100248.31;;;3.27;72.65
84248;BME280;74387;44.536;18.530;2024-02-14T06:33:49;100256.00;;;3.16;72.77
84248;BME280;74387;44.536;18.530;2024-02-14T06:36:15;100251.19;;;3.10;72.98
84248;BME280;74387;44.536;18.530;2024-02-14T06:38:42;100256.44;;;3.18;73.00
84248;BME280;74387;44.536;18.530;2024-02-14T06:41:18;100254.78;;;3.38;72.83
84248;BME280;74387;44.536;18.530;2024-02-14T06:43:50;100254.56;;;3.43;72.11
84248;BME280;74387;44.536;18.530;2024-02-14T06:47:09;100260.47;;;3.49;71.43
84248;BME280;74387;44.536;18.530;2024-02-14T06:50:11;100260.03;;;3.59;71.75
84248;BME280;74387;44.536;18.530;2024-02-14T06:53:01;100255.22;;;3.64;71.48
84248;BME280;74387;44.536;18.530;2024-02-14T06:56:15;100261.56;;;3.72;71.28
84248;BME280;74387;44.536;18.530;2024-02-14T06:59:41;100265.78;;;3.85;71.18
84248;BME280;74387;44.536;18.530;2024-02-14T07:02:18;100269.34;;;3.89;71.27
84248;BME280;74387;44.536;18.530;2024-02-14T07:04:58;100267.09;;;3.91;71.29
84248;BME280;74387;44.536;18.530;2024-02-14T07:07:59;100278.69;;;3.83;71.31
84248;BME280;74387;44.536;18.530;2024-02-14T07:10:35;100285.69;;;3.76;71.75
84248;BME280;74387;44.536;18.530;2024-02-14T07:13:10;100277.78;;;3.79;71.55
84248;BME280;74387;44.536;18.530;2024-02-14T07:15:44;100286.91;;;3.90;71.36
84248;BME280;74387;44.536;18.530;2024-02-14T07:18:21;100285.47;;;3.93;71.24
84248;BME280;74387;44.536;18.530;2024-02-14T07:21:05;100286.56;;;3.92;70.89
84248;BME280;74387;44.536;18.530;2024-02-14T07:23:48;100282.56;;;3.86;71.48
84248;BME280;74387;44.536;18.530;2024-02-14T07:26:33;100288.56;;;3.95;71.10
84248;BME280;74387;44.536;18.530;2024-02-14T07:29:33;100281.31;;;4.08;70.99
84248;BME280;74387;44.536;18.530;2024-02-14T07:32:04;100283.19;;;4.07;70.29
84248;BME280;74387;44.536;18.530;2024-02-14T07:34:38;100286.66;;;4.08;70.65
84248;BME280;74387;44.536;18.530;2024-02-14T07:37:15;100281.53;;;4.15;70.16
84248;BME280;74387;44.536;18.530;2024-02-14T07:40:32;100284.75;;;4.20;70.08
84248;BME280;74387;44.536;18.530;2024-02-14T07:43:20;100282.81;;;4.33;69.83
84248;BME280;74387;44.536;18.530;2024-02-14T07:45:50;100285.28;;;4.38;70.18
84248;BME280;74387;44.536;18.530;2024-02-14T07:48:19;100292.56;;;4.41;70.64
84248;BME280;74387;44.536;18.530;2024-02-14T07:50:48;100292.25;;;4.43;70.83
84248;BME280;74387;44.536;18.530;2024-02-14T07:53:16;100291.66;;;4.49;70.88
84248;BME280;74387;44.536;18.530;2024-02-14T07:55:41;100289.97;;;4.57;70.75
84248;BME280;74387;44.536;18.530;2024-02-14T07:58:12;100289.75;;;4.62;70.39
84248;BME280;74387;44.536;18.530;2024-02-14T08:00:39;100280.13;;;4.73;70.38
84248;BME280;74387;44.536;18.530;2024-02-14T08:03:04;100283.34;;;4.94;69.92
84248;BME280;74387;44.536;18.530;2024-02-14T08:05:31;100293.72;;;4.96;69.31
84248;BME280;74387;44.536;18.530;2024-02-14T08:07:57;100297.78;;;5.06;68.79
84248;BME280;74387;44.536;18.530;2024-02-14T08:10:29;100291.06;;;5.12;68.77
84248;BME280;74387;44.536;18.530;2024-02-14T08:12:55;100296.50;;;5.15;68.32
84248;BME280;74387;44.536;18.530;2024-02-14T08:15:23;100291.41;;;5.26;67.98
84248;BME280;74387;44.536;18.530;2024-02-14T08:17:52;100292.38;;;5.33;68.03
84248;BME280;74387;44.536;18.530;2024-02-14T08:20:34;100294.88;;;5.42;67.02
84248;BME280;74387;44.536;18.530;2024-02-14T08:23:12;100296.19;;;5.48;66.13
84248;BME280;74387;44.536;18.530;2024-02-14T08:25:38;100287.03;;;5.49;64.92
84248;BME280;74387;44.536;18.530;2024-02-14T08:28:04;100286.53;;;5.59;65.41
84248;BME280;74387;44.536;18.530;2024-02-14T08:30:35;100286.22;;;5.64;64.31
84248;BME280;74387;44.536;18.530;2024-02-14T08:33:01;100276.72;;;5.67;63.32
84248;BME280;74387;44.536;18.530;2024-02-14T08:35:28;100282.00;;;5.79;63.79
84248;BME280;74387;44.536;18.530;2024-02-14T08:37:55;100284.94;;;5.90;63.41
84248;BME280;74387;44.536;18.530;2024-02-14T08:40:22;100289.59;;;5.93;62.24
84248;BME280;74387;44.536;18.530;2024-02-14T08:42:48;100279.47;;;6.02;61.51
84248;BME280;74387;44.536;18.530;2024-02-14T08:45:24;100274.84;;;6.18;61.66
84248;BME280;74387;44.536;18.530;2024-02-14T08:52:15;100279.56;;;6.44;60.99
84248;BME280;74387;44.536;18.530;2024-02-14T08:54:45;100285.72;;;6.45;61.06
84248;BME280;74387;44.536;18.530;2024-02-14T09:04:19;100286.16;;;6.66;58.83
84248;BME280;74387;44.536;18.530;2024-02-14T09:07:16;100281.63;;;6.70;57.98
84248;BME280;74387;44.536;18.530;2024-02-14T09:13:16;100283.22;;;6.94;58.14
84248;BME280;74387;44.536;18.530;2024-02-14T09:15:47;100274.66;;;7.08;57.67
84248;BME280;74387;44.536;18.530;2024-02-14T09:18:30;100277.81;;;7.13;57.15
84248;BME280;74387;44.536;18.530;2024-02-14T09:20:59;100276.63;;;7.11;55.94
84248;BME280;74387;44.536;18.530;2024-02-14T09:26:37;100283.63;;;7.15;56.85
84248;BME280;74387;44.536;18.530;2024-02-14T09:36:37;100284.69;;;7.33;56.39
84248;BME280;74387;44.536;18.530;2024-02-14T09:39:27;100282.22;;;7.48;57.22
84248;BME280;74387;44.536;18.530;2024-02-14T09:45:34;100283.13;;;7.55;56.33
84248;BME280;74387;44.536;18.530;2024-02-14T09:59:22;100278.19;;;7.84;55.72
84248;BME280;74387;44.536;18.530;2024-02-14T10:09:23;100272.47;;;8.15;55.46
84248;BME280;74387;44.536;18.530;2024-02-14T10:12:20;100267.91;;;8.19;54.86
84248;BME280;74387;44.536;18.530;2024-02-14T10:22:10;100261.81;;;8.22;55.25
84248;BME280;74387;44.536;18.530;2024-02-14T10:25:30;100256.94;;;8.31;54.28
84248;BME280;74387;44.536;18.530;2024-02-14T10:28:11;100252.88;;;8.45;54.86
84248;BME280;74387;44.536;18.530;2024-02-14T10:30:45;100248.72;;;8.51;54.71
84248;BME280;74387;44.536;18.530;2024-02-14T10:33:16;100260.41;;;8.62;53.79
84248;BME280;74387;44.536;18.530;2024-02-14T10:35:47;100254.53;;;8.53;53.79
84248;BME280;74387;44.536;18.530;2024-02-14T10:38:16;100249.88;;;8.50;53.79
84248;BME280;74387;44.536;18.530;2024-02-14T10:40:47;100240.78;;;8.61;53.67
84248;BME280;74387;44.536;18.530;2024-02-14T10:43:19;100243.53;;;8.65;53.43
84248;BME280;74387;44.536;18.530;2024-02-14T10:45:49;100242.72;;;8.61;52.81
84248;BME280;74387;44.536;18.530;2024-02-14T10:48:28;100243.53;;;8.65;53.61
84248;BME280;74387;44.536;18.530;2024-02-14T10:50:59;100231.66;;;8.69;53.51
84248;BME280;74387;44.536;18.530;2024-02-14T10:53:32;100232.94;;;8.83;54.15
84248;BME280;74387;44.536;18.530;2024-02-14T10:56:05;100230.38;;;8.97;52.92
84248;BME280;74387;44.536;18.530;2024-02-14T10:58:45;100222.41;;;9.08;52.52
84248;BME280;74387;44.536;18.530;2024-02-14T11:01:19;100232.03;;;9.09;52.86
84248;BME280;74387;44.536;18.530;2024-02-14T11:03:53;100228.25;;;9.17;52.20
84248;BME280;74387;44.536;18.530;2024-02-14T11:06:26;100221.31;;;9.12;52.53
84248;BME280;74387;44.536;18.530;2024-02-14T11:09:04;100218.63;;;9.16;51.57
84248;BME280;74387;44.536;18.530;2024-02-14T11:14:48;100219.19;;;9.39;52.15
84248;BME280;74387;44.536;18.530;2024-02-14T11:18:02;100221.88;;;9.39;50.62
84248;BME280;74387;44.536;18.530;2024-02-14T11:20:45;100227.69;;;9.41;50.64
84248;BME280;74387;44.536;18.530;2024-02-14T11:23:31;100213.81;;;9.39;50.69
84248;BME280;74387;44.536;18.530;2024-02-14T11:26:04;100225.44;;;9.50;50.26
84248;BME280;74387;44.536;18.530;2024-02-14T11:28:41;100213.94;;;9.57;50.03
84248;BME280;74387;44.536;18.530;2024-02-14T11:31:18;100225.88;;;9.56;48.23
84248;BME280;74387;44.536;18.530;2024-02-14T11:33:45;100222.41;;;9.55;48.55
84248;BME280;74387;44.536;18.530;2024-02-14T11:36:16;100230.88;;;9.61;46.83
84248;BME280;74387;44.536;18.530;2024-02-14T11:38:48;100220.19;;;9.72;45.09
84248;BME280;74387;44.536;18.530;2024-02-14T11:41:34;100214.00;;;9.67;45.70
84248;BME280;74387;44.536;18.530;2024-02-14T11:44:15;100210.59;;;9.78;46.41
84248;BME280;74387;44.536;18.530;2024-02-14T11:46:49;100215.66;;;9.86;44.23
84248;BME280;74387;44.536;18.530;2024-02-14T11:49:15;100211.78;;;9.84;44.07
84248;BME280;74387;44.536;18.530;2024-02-14T11:51:46;100207.97;;;9.92;45.85
84248;BME280;74387;44.536;18.530;2024-02-14T11:54:17;100204.50;;;9.91;45.63
84248;BME280;74387;44.536;18.530;2024-02-14T11:56:48;100206.47;;;9.98;46.20
84248;BME280;74387;44.536;18.530;2024-02-14T11:59:14;100203.41;;;10.03;45.84
84248;BME280;74387;44.536;18.530;2024-02-14T12:01:43;100204.56;;;10.06;46.18
84248;BME280;74387;44.536;18.530;2024-02-14T12:04:12;100201.53;;;10.14;46.09
84248;BME280;74387;44.536;18.530;2024-02-14T12:06:40;100204.25;;;10.18;45.92
84248;BME280;74387;44.536;18.530;2024-02-14T12:09:11;100200.44;;;10.22;46.68
84248;BME280;74387;44.536;18.530;2024-02-14T12:11:40;100206.22;;;10.24;45.18
84248;BME280;74387;44.536;18.530;2024-02-14T12:14:09;100195.34;;;10.14;44.90
84248;BME280;74387;44.536;18.530;2024-02-14T12:16:36;100198.13;;;10.21;45.95
84248;BME280;74387;44.536;18.530;2024-02-14T12:19:15;100195.06;;;10.26;45.86
84248;BME280;74387;44.536;18.530;2024-02-14T12:21:43;100188.91;;;10.29;45.32
84248;BME280;74387;44.536;18.530;2024-02-14T12:24:10;100185.47;;;10.39;45.70
84248;BME280;74387;44.536;18.530;2024-02-14T12:26:38;100192.00;;;10.42;44.62
84248;BME280;74387;44.536;18.530;2024-02-14T12:29:05;100203.94;;;10.33;44.70
84248;BME280;74387;44.536;18.530;2024-02-14T12:31:33;100201.59;;;10.25;44.57
84248;BME280;74387;44.536;18.530;2024-02-14T12:37:42;100181.50;;;10.19;44.07
84248;BME280;74387;44.536;18.530;2024-02-14T12:40:11;100192.34;;;10.22;44.62
84248;BME280;74387;44.536;18.530;2024-02-14T12:42:37;100176.94;;;10.26;44.94
84248;BME280;74387;44.536;18.530;2024-02-14T12:48:52;100173.91;;;10.46;45.17
84248;BME280;74387;44.536;18.530;2024-02-14T12:59:03;100178.13;;;10.43;44.09
84248;BME280;74387;44.536;18.530;2024-02-14T13:02:19;100179.69;;;10.48;44.44
84248;BME280;74387;44.536;18.530;2024-02-14T13:04:46;100169.66;;;10.45;45.69
84248;BME280;74387;44.536;18.530;2024-02-14T13:07:12;100168.50;;;10.46;44.91
84248;BME280;74387;44.536;18.530;2024-02-14T13:09:41;100170.81;;;10.44;44.46
84248;BME280;74387;44.536;18.530;2024-02-14T13:12:09;100167.00;;;10.55;44.71
84248;BME280;74387;44.536;18.530;2024-02-14T13:14:36;100167.78;;;10.59;44.31
84248;BME280;74387;44.536;18.530;2024-02-14T13:17:02;100167.03;;;10.66;44.36
84248;BME280;74387;44.536;18.530;2024-02-14T13:19:36;100168.97;;;10.73;43.88
84248;BME280;74387;44.536;18.530;2024-02-14T13:22:06;100167.44;;;10.79;44.02
84248;BME280;74387;44.536;18.530;2024-02-14T13:24:32;100167.41;;;10.68;42.79
84248;BME280;74387;44.536;18.530;2024-02-14T13:27:00;100173.97;;;10.71;43.25
84248;BME280;74387;44.536;18.530;2024-02-14T13:29:27;100172.03;;;10.64;42.81
84248;BME280;74387;44.536;18.530;2024-02-14T13:31:55;100165.84;;;10.63;42.07
84248;BME280;74387;44.536;18.530;2024-02-14T13:34:29;100163.94;;;10.64;41.49
84248;BME280;74387;44.536;18.530;2024-02-14T13:37:04;100161.22;;;10.64;42.79
84248;BME280;74387;44.536;18.530;2024-02-14T13:39:32;100165.50;;;10.79;43.25
84248;BME280;74387;44.536;18.530;2024-02-14T13:42:05;100166.63;;;10.85;41.15
84248;BME280;74387;44.536;18.530;2024-02-14T13:44:36;100166.25;;;10.83;42.21
84248;BME280;74387;44.536;18.530;2024-02-14T13:47:06;100168.19;;;10.86;42.21
84248;BME280;74387;44.536;18.530;2024-02-14T13:49:35;100168.19;;;10.86;42.06
84248;BME280;74387;44.536;18.530;2024-02-14T13:52:05;100169.72;;;10.80;41.52
84248;BME280;74387;44.536;18.530;2024-02-14T13:54:58;100174.34;;;10.80;42.00
84248;BME280;74387;44.536;18.530;2024-02-14T14:01:04;100173.59;;;10.72;42.40
84248;BME280;74387;44.536;18.530;2024-02-14T14:07:42;100178.22;;;10.86;39.18
84248;BME280;74387;44.536;18.530;2024-02-14T14:10:17;100171.28;;;10.92;40.16
84248;BME280;74387;44.536;18.530;2024-02-14T14:12:47;100170.50;;;10.95;42.44
84248;BME280;74387;44.536;18.530;2024-02-14T14:15:17;100179.38;;;10.99;42.97
84248;BME280;74387;44.536;18.530;2024-02-14T14:17:49;100172.03;;;10.85;42.75
84248;BME280;74387;44.536;18.530;2024-02-14T14:20:16;100182.84;;;10.92;42.33
84248;BME280;74387;44.536;18.530;2024-02-14T14:22:44;100178.97;;;10.86;42.61
84248;BME280;74387;44.536;18.530;2024-02-14T14:25:11;100173.19;;;10.81;41.97
84248;BME280;74387;44.536;18.530;2024-02-14T14:27:38;100175.13;;;10.84;42.63
84248;BME280;74387;44.536;18.530;2024-02-14T14:30:05;100180.53;;;10.94;43.04
84248;BME280;74387;44.536;18.530;2024-02-14T14:32:32;100186.69;;;10.88;42.26